createdAt,value
2018-06-13T00:01:37.357Z,9.23
2018-06-13T00:04:06.295Z,7.80
2018-06-13T00:06:35.063Z,7.50
2018-06-13T00:09:04.158Z,7.03
2018-06-13T00:11:32.869Z,6.60
2018-06-13T00:14:01.715Z,7.50
2018-06-13T00:16:30.409Z,8.70
2018-06-13T00:18:59.330Z,8.90
2018-06-13T00:21:28.101Z,8.80
2018-06-13T00:23:56.819Z,9.07
2018-06-13T00:26:25.533Z,8.87
2018-06-13T00:28:54.459Z,8.10
2018-06-13T00:31:23.194Z,9.40
2018-06-13T00:33:51.922Z,8.87
2018-06-13T00:36:20.690Z,8.83
2018-06-13T00:38:49.404Z,9.23
2018-06-13T00:41:18.177Z,9.83
2018-06-13T00:43:46.927Z,10.13
2018-06-13T00:46:15.622Z,9.23
2018-06-13T00:48:44.337Z,8.83
2018-06-13T00:51:13.245Z,8.57
2018-06-13T00:53:41.937Z,8.90
2018-06-13T00:56:21.764Z,6.70
2018-06-13T00:58:50.466Z,7.87
2018-06-13T01:01:19.183Z,7.17
2018-06-13T01:03:47.931Z,7.53
2018-06-13T01:06:16.673Z,7.50
2018-06-13T01:08:45.399Z,6.10
2018-06-13T01:11:14.121Z,6.00
2018-06-13T01:13:42.833Z,5.73
2018-06-13T01:16:11.606Z,5.57
2018-06-13T01:18:40.349Z,5.90
2018-06-13T01:21:09.063Z,5.90
2018-06-13T01:23:37.801Z,7.70
2018-06-13T01:26:06.531Z,8.03
2018-06-13T01:28:35.254Z,8.63
2018-06-13T01:31:04.168Z,8.10
2018-06-13T01:33:32.923Z,7.00
2018-06-13T01:36:01.633Z,9.63
2018-06-13T01:38:30.371Z,8.50
2018-06-13T01:40:59.226Z,8.80
2018-06-13T01:43:27.956Z,7.27
2018-06-13T01:45:56.754Z,6.23
2018-06-13T01:48:25.549Z,6.60
2018-06-13T01:50:56.892Z,6.93
2018-06-13T01:53:25.797Z,6.90
2018-06-13T01:55:54.501Z,6.50
2018-06-13T01:58:23.251Z,6.10
2018-06-13T02:00:51.998Z,6.60
2018-06-13T02:03:20.716Z,6.47
2018-06-13T02:05:49.417Z,6.60
2018-06-13T02:08:18.182Z,6.30
2018-06-13T02:10:46.882Z,6.10
2018-06-13T02:13:15.558Z,6.43
2018-06-13T02:15:44.274Z,7.73
2018-06-13T02:18:12.978Z,6.53
2018-06-13T02:20:41.668Z,7.17
2018-06-13T02:23:10.377Z,7.20
2018-06-13T02:25:39.061Z,8.23
2018-06-13T02:28:07.790Z,8.10
2018-06-13T02:30:36.522Z,6.00
2018-06-13T02:33:05.232Z,7.20
2018-06-13T02:35:34.153Z,6.40
2018-06-13T02:38:02.889Z,6.70
2018-06-13T02:40:31.568Z,5.87
2018-06-13T02:43:00.262Z,8.13
2018-06-13T02:45:29.162Z,6.80
2018-06-13T02:47:57.861Z,5.90
2018-06-13T02:50:26.566Z,8.90
2018-06-13T02:52:55.305Z,8.80
2018-06-13T02:55:24.030Z,8.10
2018-06-13T02:57:52.761Z,8.90
2018-06-13T03:00:21.503Z,7.40
2018-06-13T03:02:50.226Z,10.40
2018-06-13T03:05:18.947Z,8.43
2018-06-13T03:07:47.701Z,8.80
2018-06-13T03:10:16.406Z,8.17
2018-06-13T03:12:45.113Z,9.37
2018-06-13T03:15:13.861Z,8.10
2018-06-13T03:17:42.560Z,8.33
2018-06-13T03:20:11.302Z,8.40
2018-06-13T03:22:40.047Z,8.20
2018-06-13T03:25:08.914Z,8.73
2018-06-13T03:27:37.606Z,8.17
2018-06-13T03:30:06.330Z,8.90
2018-06-13T03:32:35.021Z,11.80
2018-06-13T03:35:03.717Z,14.57
2018-06-13T03:37:32.496Z,8.07
2018-06-13T03:40:01.211Z,10.57
2018-06-13T03:42:29.919Z,7.90
2018-06-13T03:44:58.650Z,7.47
2018-06-13T03:47:27.362Z,6.53
2018-06-13T03:49:56.054Z,9.30
2018-06-13T03:52:24.765Z,6.47
2018-06-13T03:54:53.686Z,5.77
2018-06-13T03:57:22.489Z,5.77
2018-06-13T03:59:51.245Z,5.50
2018-06-13T04:02:19.937Z,5.30
2018-06-13T04:04:48.700Z,5.40
2018-06-13T04:07:17.845Z,5.03
2018-06-13T04:09:46.526Z,5.67
2018-06-13T04:12:15.220Z,6.80
2018-06-13T04:14:43.949Z,5.67
2018-06-13T04:17:12.649Z,5.90
2018-06-13T04:19:41.349Z,8.33
2018-06-13T04:22:10.160Z,8.47
2018-06-13T04:24:39.008Z,5.10
2018-06-13T04:27:07.766Z,4.80
2018-06-13T04:29:36.485Z,5.93
2018-06-13T04:32:05.249Z,5.77
2018-06-13T04:34:34.085Z,6.10
2018-06-13T04:37:02.854Z,8.40
2018-06-13T04:39:31.558Z,7.60
2018-06-13T04:42:00.292Z,8.07
2018-06-13T04:44:29.025Z,9.20
2018-06-13T04:46:57.720Z,8.00
2018-06-13T04:49:26.415Z,8.80
2018-06-13T04:51:55.273Z,9.23
2018-06-13T04:54:24.006Z,8.00
2018-06-13T04:56:52.718Z,5.90
2018-06-13T04:59:21.443Z,7.37
2018-06-13T05:01:50.161Z,8.07
2018-06-13T05:04:18.862Z,7.33
2018-06-13T05:06:47.621Z,4.70
2018-06-13T05:09:16.321Z,3.20
2018-06-13T05:11:45.040Z,3.23
2018-06-13T05:14:13.777Z,4.73
2018-06-13T05:16:42.549Z,3.80
2018-06-13T05:19:11.223Z,4.50
2018-06-13T05:21:40.067Z,5.15
2018-06-13T05:24:08.759Z,4.05
2018-06-13T05:26:37.487Z,4.57
2018-06-13T05:29:06.239Z,5.55
2018-06-13T05:31:34.933Z,6.25
2018-06-13T05:34:03.622Z,6.25
2018-06-13T05:36:32.345Z,6.97
2018-06-13T05:39:01.029Z,7.08
2018-06-13T05:41:29.714Z,5.08
2018-06-13T05:43:58.604Z,5.03
2018-06-13T05:46:27.298Z,6.72
2018-06-13T05:48:56.132Z,5.10
2018-06-13T05:51:24.871Z,5.10
2018-06-13T05:53:53.571Z,4.72
2018-06-13T05:56:22.268Z,4.85
2018-06-13T05:58:51.030Z,3.70
2018-06-13T06:01:19.764Z,3.15
2018-06-13T06:03:48.487Z,4.15
2018-06-13T06:06:17.265Z,3.30
2018-06-13T06:08:45.977Z,5.22
2018-06-13T06:11:14.675Z,4.80
2018-06-13T06:13:43.430Z,4.53
2018-06-13T06:16:12.127Z,3.83
2018-06-13T06:18:40.814Z,3.35
2018-06-13T06:21:09.524Z,4.03
2018-06-13T06:23:38.272Z,3.90
2018-06-13T06:26:06.953Z,3.90
2018-06-13T06:28:35.692Z,3.77
2018-06-13T06:31:04.386Z,3.30
2018-06-13T06:33:33.106Z,3.00
2018-06-13T06:36:01.833Z,3.70
2018-06-13T06:38:30.918Z,3.33
2018-06-13T06:40:59.605Z,2.67
2018-06-13T06:43:28.505Z,2.83
2018-06-13T06:45:57.203Z,3.67
2018-06-13T06:48:25.913Z,3.55
2018-06-13T06:50:54.709Z,3.37
2018-06-13T06:53:23.446Z,3.90
2018-06-13T06:55:52.149Z,3.70
2018-06-13T06:58:21.094Z,4.17
2018-06-13T07:00:49.808Z,4.33
2018-06-13T07:03:18.515Z,3.80
2018-06-13T07:05:47.263Z,3.15
2018-06-13T07:08:15.952Z,3.60
2018-06-13T07:10:44.637Z,2.77
2018-06-13T07:13:13.370Z,4.42
2018-06-13T07:15:42.069Z,4.37
2018-06-13T07:18:10.764Z,4.15
2018-06-13T07:20:39.666Z,3.72
2018-06-13T07:23:08.358Z,3.40
2018-06-13T07:25:37.048Z,5.17
2018-06-13T07:28:05.779Z,3.67
2018-06-13T07:30:34.597Z,4.80
2018-06-13T07:33:03.668Z,4.58
2018-06-13T07:35:32.618Z,3.42
2018-06-13T07:38:01.310Z,3.52
2018-06-13T07:40:30.008Z,4.45
2018-06-13T07:42:58.746Z,5.25
2018-06-13T07:45:27.460Z,5.67
2018-06-13T07:47:56.202Z,4.22
2018-06-13T07:50:24.977Z,6.30
2018-06-13T07:52:53.670Z,3.83
2018-06-13T07:55:22.373Z,15.95
2018-06-13T07:57:51.125Z,4.10
2018-06-13T08:00:19.824Z,5.85
2018-06-13T08:02:48.522Z,4.50
2018-06-13T08:05:17.270Z,4.45
2018-06-13T08:07:45.979Z,4.55
2018-06-13T08:10:14.808Z,4.25
2018-06-13T08:12:43.551Z,3.45
2018-06-13T08:15:12.259Z,4.70
2018-06-13T08:17:40.944Z,5.12
2018-06-13T08:20:09.723Z,4.45
2018-06-13T08:22:38.490Z,4.17
2018-06-13T08:25:07.185Z,5.12
2018-06-13T08:27:41.727Z,5.30
2018-06-13T08:30:10.932Z,4.50
2018-06-13T08:32:39.622Z,4.95
2018-06-13T08:35:08.407Z,4.90
2018-06-13T08:37:37.098Z,4.90
2018-06-13T08:40:06.219Z,5.20
2018-06-13T08:42:34.974Z,5.42
2018-06-13T08:45:03.753Z,5.92
2018-06-13T08:47:32.494Z,5.95
2018-06-13T08:50:01.342Z,4.85
2018-06-13T08:52:30.090Z,4.78
2018-06-13T08:54:59.689Z,4.83
2018-06-13T08:57:28.526Z,5.00
2018-06-13T08:59:57.247Z,4.20
2018-06-13T09:02:26.026Z,4.00
2018-06-13T09:04:54.861Z,4.40
2018-06-13T09:07:23.560Z,5.22
2018-06-13T09:09:52.298Z,6.22
2018-06-13T09:12:21.049Z,4.97
2018-06-13T09:14:49.767Z,5.33
2018-06-13T09:17:18.466Z,6.12
2018-06-13T09:19:47.211Z,5.50
2018-06-13T09:22:15.973Z,6.60
2018-06-13T09:24:44.748Z,5.45
2018-06-13T09:27:13.506Z,5.12
2018-06-13T09:29:42.218Z,4.60
2018-06-13T09:32:10.918Z,4.58
2018-06-13T09:34:39.645Z,4.72
2018-06-13T09:37:08.391Z,3.77
2018-06-13T09:39:37.102Z,4.42
2018-06-13T09:42:05.851Z,4.33
2018-06-13T09:44:34.587Z,3.90
2018-06-13T09:47:06.907Z,5.17
2018-06-13T09:49:32.161Z,3.40
2018-06-13T09:52:00.891Z,4.67
2018-06-13T09:54:29.651Z,4.25
2018-06-13T09:56:58.454Z,4.58
2018-06-13T09:59:31.250Z,4.00
2018-06-13T10:02:05.378Z,4.10
2018-06-13T10:04:34.303Z,4.70
2018-06-13T10:07:03.109Z,4.42
2018-06-13T10:09:31.847Z,5.33
2018-06-13T10:12:00.560Z,4.65
2018-06-13T10:14:29.253Z,5.50
2018-06-13T10:16:57.987Z,4.72
2018-06-13T10:19:26.724Z,3.80
2018-06-13T10:21:55.447Z,3.87
2018-06-13T10:24:24.207Z,4.40
2018-06-13T10:26:52.930Z,4.37
2018-06-13T10:29:21.686Z,4.15
2018-06-13T10:31:50.439Z,4.00
2018-06-13T10:34:19.178Z,3.90
2018-06-13T10:36:47.887Z,3.90
2018-06-13T10:39:16.625Z,4.42
2018-06-13T10:41:45.365Z,4.10
2018-06-13T10:44:14.072Z,4.50
2018-06-13T10:46:42.806Z,3.90
2018-06-13T10:49:11.761Z,4.08
2018-06-13T10:51:40.466Z,5.00
2018-06-13T10:54:09.203Z,5.20
2018-06-13T10:56:38.077Z,4.62
2018-06-13T10:59:06.794Z,5.47
2018-06-13T11:01:35.563Z,3.72
2018-06-13T11:04:04.317Z,4.22
2018-06-13T11:06:33.199Z,4.42
2018-06-13T11:09:02.126Z,4.92
2018-06-13T11:11:30.993Z,4.70
2018-06-13T11:13:59.682Z,5.37
2018-06-13T11:16:28.401Z,5.37
2018-06-13T11:18:57.114Z,5.45
2018-06-13T11:21:25.835Z,5.12
2018-06-13T11:23:54.567Z,5.05
2018-06-13T11:26:23.276Z,5.12
2018-06-13T11:28:51.985Z,5.53
2018-06-13T11:31:20.728Z,3.83
2018-06-13T11:33:49.449Z,6.10
2018-06-13T11:36:18.165Z,4.62
2018-06-13T11:38:47.040Z,4.85
2018-06-13T11:41:15.781Z,4.30
2018-06-13T11:43:44.489Z,3.80
2018-06-13T11:46:13.220Z,4.15
2018-06-13T11:48:41.961Z,4.08
2018-06-13T11:51:10.666Z,4.00
2018-06-13T11:53:39.436Z,4.25
2018-06-13T11:56:08.189Z,3.87
2018-06-13T11:58:36.902Z,4.22
2018-06-13T12:01:05.657Z,3.60
2018-06-13T12:03:34.364Z,4.15
2018-06-13T12:06:03.161Z,3.85
2018-06-13T12:08:31.889Z,3.70
2018-06-13T12:11:00.694Z,3.62
2018-06-13T12:13:29.422Z,3.72
2018-06-13T12:15:58.205Z,3.98
2018-06-13T12:18:27.075Z,3.98
2018-06-13T12:20:55.966Z,3.77
2018-06-13T12:23:24.749Z,3.92
2018-06-13T12:25:53.538Z,4.15
2018-06-13T12:28:22.230Z,5.35
2018-06-13T12:30:50.968Z,5.35
2018-06-13T12:33:19.669Z,4.70
2018-06-13T12:35:48.510Z,5.35
2018-06-13T12:38:17.270Z,6.90
2018-06-13T12:40:46.024Z,5.60
2018-06-13T12:43:14.968Z,5.85
2018-06-13T12:45:43.832Z,5.30
2018-06-13T12:48:12.645Z,5.37
2018-06-13T12:50:42.167Z,5.80
2018-06-13T12:53:11.165Z,6.70
2018-06-13T12:55:39.912Z,5.90
2018-06-13T12:58:08.754Z,5.90
2018-06-13T13:00:37.573Z,5.70
2018-06-13T13:03:06.390Z,5.40
2018-06-13T13:05:35.148Z,5.77
2018-06-13T13:08:03.890Z,6.17
2018-06-13T13:10:32.771Z,5.10
2018-06-13T13:13:01.554Z,5.70
2018-06-13T13:15:30.381Z,8.73
2018-06-13T13:17:59.319Z,5.40
2018-06-13T13:20:28.106Z,5.43
2018-06-13T13:22:56.862Z,5.83
2018-06-13T13:25:25.597Z,4.97
2018-06-13T13:27:54.397Z,7.23
2018-06-13T13:30:23.274Z,7.37
2018-06-13T13:32:52.010Z,5.70
2018-06-13T13:35:20.736Z,5.40
2018-06-13T13:37:49.482Z,5.80
2018-06-13T13:40:18.643Z,4.87
2018-06-13T13:42:48.036Z,6.50
2018-06-13T13:45:16.817Z,5.57
2018-06-13T13:47:45.918Z,5.70
2018-06-13T13:50:14.648Z,5.90
2018-06-13T13:52:43.518Z,5.70
2018-06-13T13:55:12.332Z,6.73
2018-06-13T13:57:41.066Z,5.70
2018-06-13T14:00:09.992Z,4.90
2018-06-13T14:02:38.785Z,5.40
2018-06-13T14:05:07.608Z,7.17
2018-06-13T14:07:36.434Z,6.10
2018-06-13T14:10:05.580Z,5.20
2018-06-13T14:12:34.492Z,4.80
2018-06-13T14:15:03.488Z,5.27
2018-06-13T14:17:32.524Z,6.40
2018-06-13T14:20:01.267Z,6.23
2018-06-13T14:22:30.171Z,6.00
2018-06-13T14:24:58.789Z,6.20
2018-06-13T14:27:27.510Z,6.20
2018-06-13T14:29:56.304Z,5.83
2018-06-13T14:32:25.069Z,6.43
2018-06-13T14:34:53.819Z,7.20
2018-06-13T14:37:22.640Z,6.33
2018-06-13T14:39:51.376Z,7.47
2018-06-13T14:42:20.165Z,6.57
2018-06-13T14:44:48.985Z,6.10
2018-06-13T14:47:17.710Z,6.43
2018-06-13T14:49:46.450Z,5.70
2018-06-13T14:52:15.258Z,7.27
2018-06-13T14:54:43.997Z,7.17
2018-06-13T14:57:12.781Z,6.10
2018-06-13T14:59:41.597Z,6.53
2018-06-13T15:02:10.314Z,6.67
2018-06-13T15:04:39.040Z,5.00
2018-06-13T15:07:07.806Z,4.90
2018-06-13T15:09:36.554Z,5.23
2018-06-13T15:12:05.311Z,5.77
2018-06-13T15:14:34.070Z,6.10
2018-06-13T15:17:02.786Z,4.73
2018-06-13T15:19:31.515Z,5.77
2018-06-13T15:22:01.505Z,6.97
2018-06-13T15:24:30.437Z,6.50
2018-06-13T15:26:59.140Z,4.93
2018-06-13T15:29:27.892Z,5.60
2018-06-13T15:31:56.604Z,5.67
2018-06-13T15:34:25.338Z,5.47
2018-06-13T15:36:54.118Z,5.60
2018-06-13T15:39:22.869Z,5.33
2018-06-13T15:41:51.619Z,4.80
2018-06-13T15:44:20.380Z,5.43
2018-06-13T15:46:49.081Z,5.80
2018-06-13T15:49:17.816Z,4.30
2018-06-13T15:51:46.549Z,7.10
2018-06-13T15:54:15.292Z,5.33
2018-06-13T15:56:44.219Z,6.70
2018-06-13T15:59:12.959Z,5.83
2018-06-13T16:01:41.693Z,5.50
2018-06-13T16:04:10.446Z,5.37
2018-06-13T16:06:39.275Z,5.70
2018-06-13T16:09:09.949Z,6.13
2018-06-13T16:11:38.723Z,5.37
2018-06-13T16:14:07.491Z,5.83
2018-06-13T16:16:36.266Z,5.47
2018-06-13T16:19:05.366Z,5.93
2018-06-13T16:21:34.141Z,5.17
2018-06-13T16:24:02.954Z,6.43
2018-06-13T16:26:31.711Z,5.60
2018-06-13T16:29:00.456Z,5.47
2018-06-13T16:31:29.267Z,6.90
2018-06-13T16:33:58.014Z,6.93
2018-06-13T16:36:26.811Z,5.60
2018-06-13T16:38:55.569Z,8.47
2018-06-13T16:41:24.348Z,5.90
2018-06-13T16:43:53.154Z,6.57
2018-06-13T16:46:21.942Z,6.60
2018-06-13T16:48:50.687Z,9.00
2018-06-13T16:51:30.617Z,7.70
2018-06-13T16:54:12.633Z,7.43
2018-06-13T16:56:41.964Z,8.10
2018-06-13T16:59:10.741Z,8.20
2018-06-13T17:01:39.594Z,7.40
2018-06-13T17:04:08.431Z,8.07
2018-06-13T17:06:37.315Z,8.10
2018-06-13T17:09:07.490Z,8.47
2018-06-13T17:11:36.418Z,8.00
2018-06-13T17:14:05.166Z,8.00
2018-06-13T17:16:33.901Z,8.40
2018-06-13T17:19:04.177Z,8.00
2018-06-13T17:21:33.000Z,9.00
2018-06-13T17:24:01.747Z,7.93
2018-06-13T17:26:30.520Z,8.80
2018-06-13T17:28:59.281Z,8.17
2018-06-13T17:31:28.168Z,8.77
2018-06-13T17:33:56.943Z,8.67
2018-06-13T17:36:25.868Z,8.73
2018-06-13T17:38:54.591Z,8.10
2018-06-13T17:41:23.352Z,9.53
2018-06-13T17:43:52.114Z,10.57
2018-06-13T17:46:20.875Z,11.00
2018-06-13T17:48:49.639Z,10.43
2018-06-13T17:51:18.489Z,10.80
2018-06-13T17:53:47.217Z,11.83
2018-06-13T17:56:15.988Z,12.40
2018-06-13T17:58:44.797Z,11.03
2018-06-13T18:01:13.560Z,12.43
2018-06-13T18:03:42.341Z,11.17
2018-06-13T18:06:11.151Z,10.37
2018-06-13T18:08:39.922Z,10.37
2018-06-13T18:11:08.642Z,10.17
2018-06-13T18:13:37.488Z,11.83
2018-06-13T18:16:06.240Z,11.70
2018-06-13T18:18:35.003Z,12.10
2018-06-13T18:21:03.837Z,10.90
2018-06-13T18:23:32.698Z,12.67
2018-06-13T18:26:01.454Z,15.47
2018-06-13T18:28:30.263Z,12.60
2018-06-13T18:30:59.025Z,13.67
2018-06-13T18:33:27.763Z,40.60
2018-06-13T18:35:56.515Z,13.67
2018-06-13T18:38:25.265Z,30.00
2018-06-13T18:40:54.009Z,12.03
2018-06-13T18:43:22.782Z,11.73
2018-06-13T18:45:51.518Z,10.90
2018-06-13T18:48:20.259Z,13.17
2018-06-13T18:50:49.013Z,12.90
2018-06-13T18:53:17.839Z,12.20
2018-06-13T18:55:46.546Z,12.67
2018-06-13T18:58:15.445Z,11.97
2018-06-13T19:00:44.266Z,12.33
2018-06-13T19:03:12.973Z,12.30
2018-06-13T19:05:41.740Z,14.20
2018-06-13T19:08:10.529Z,12.63
2018-06-13T19:10:39.233Z,11.33
2018-06-13T19:13:08.050Z,13.07
2018-06-13T19:15:36.763Z,13.83
2018-06-13T19:18:05.501Z,12.33
2018-06-13T19:20:34.423Z,13.33
2018-06-13T19:23:03.164Z,13.60
2018-06-13T19:25:32.017Z,13.23
2018-06-13T19:28:01.353Z,13.03
2018-06-13T19:30:30.115Z,12.23
2018-06-13T19:32:58.887Z,13.93
2018-06-13T19:35:27.649Z,14.97
2018-06-13T19:37:56.491Z,13.40
2018-06-13T19:40:25.206Z,15.83
2018-06-13T19:42:53.983Z,13.13
2018-06-13T19:45:22.711Z,14.40
2018-06-13T19:47:56.603Z,14.30
2018-06-13T19:50:25.299Z,14.97
2018-06-13T19:52:59.157Z,14.83
2018-06-13T19:55:32.991Z,23.50
2018-06-13T19:58:01.910Z,22.60
2018-06-13T20:00:30.652Z,12.33
2018-06-13T20:03:04.688Z,11.10
2018-06-13T20:05:38.464Z,11.80
2018-06-13T20:08:07.326Z,11.40
2018-06-13T20:10:36.025Z,13.40
2018-06-13T20:13:09.853Z,36.23
2018-06-13T20:15:43.884Z,15.37
2018-06-13T20:18:17.783Z,14.30
2018-06-13T20:20:46.548Z,15.67
2018-06-13T20:23:15.281Z,15.30
2018-06-13T20:25:49.219Z,14.80
2018-06-13T20:28:23.198Z,13.73
2018-06-13T20:30:57.121Z,11.87
2018-06-13T20:33:25.838Z,13.03
2018-06-13T20:35:55.096Z,13.90
2018-06-13T20:38:23.864Z,12.67
2018-06-13T20:40:52.579Z,15.83
2018-06-13T20:43:21.362Z,15.03
2018-06-13T20:45:50.112Z,11.90
2018-06-13T20:48:18.875Z,10.33
2018-06-13T20:50:47.634Z,12.43
2018-06-13T20:53:16.385Z,11.40
2018-06-13T20:55:45.155Z,10.30
2018-06-13T20:58:13.919Z,9.60
2018-06-13T21:00:42.796Z,9.00
2018-06-13T21:03:11.502Z,9.97
2018-06-13T21:05:40.318Z,8.10
2018-06-13T21:08:09.199Z,6.57
2018-06-13T21:10:37.912Z,7.23
2018-06-13T21:13:06.651Z,6.60
2018-06-13T21:15:35.450Z,6.50
2018-06-13T21:18:04.446Z,6.70
2018-06-13T21:20:33.499Z,8.10
2018-06-13T21:23:02.291Z,7.43
2018-06-13T21:25:31.111Z,7.33
2018-06-13T21:27:59.883Z,7.00
2018-06-13T21:30:28.634Z,10.20
2018-06-13T21:32:57.399Z,8.70
2018-06-13T21:35:26.147Z,7.60
2018-06-13T21:37:54.909Z,8.37
2018-06-13T21:40:23.627Z,9.40
2018-06-13T21:42:52.355Z,9.27
2018-06-13T21:45:21.119Z,9.93
2018-06-13T21:47:49.809Z,9.20
2018-06-13T21:50:18.518Z,8.37
2018-06-13T21:52:47.297Z,8.30
2018-06-13T21:55:16.013Z,8.60
2018-06-13T21:57:44.774Z,8.23
2018-06-13T22:00:13.541Z,6.47
2018-06-13T22:02:42.452Z,6.90
2018-06-13T22:05:11.199Z,7.00
2018-06-13T22:07:40.025Z,7.63
2018-06-13T22:10:08.820Z,8.40
2018-06-13T22:12:37.627Z,7.83
2018-06-13T22:15:11.375Z,6.57
2018-06-13T22:17:40.127Z,7.10
2018-06-13T22:20:08.867Z,7.33
2018-06-13T22:22:37.766Z,6.93
2018-06-13T22:25:06.578Z,7.27
2018-06-13T22:27:35.293Z,6.60
2018-06-13T22:30:04.087Z,6.93
2018-06-13T22:32:32.837Z,6.67
2018-06-13T22:35:01.610Z,7.20
2018-06-13T22:37:30.392Z,6.70
2018-06-13T22:39:59.155Z,7.87
2018-06-13T22:42:27.891Z,6.77
2018-06-13T22:44:56.734Z,7.33
2018-06-13T22:47:25.583Z,7.43
2018-06-13T22:49:54.330Z,6.43
2018-06-13T22:52:23.186Z,6.37
2018-06-13T22:54:51.901Z,7.63
2018-06-13T22:57:20.631Z,6.23
2018-06-13T22:59:49.391Z,6.40
2018-06-13T23:02:18.174Z,6.80
2018-06-13T23:04:46.894Z,7.50
2018-06-13T23:07:15.643Z,9.03
2018-06-13T23:09:44.404Z,6.20
2018-06-13T23:12:13.122Z,7.30
2018-06-13T23:14:41.875Z,9.70
2018-06-13T23:17:10.703Z,7.90
2018-06-13T23:19:39.454Z,7.93
2018-06-13T23:22:08.226Z,8.03
2018-06-13T23:24:36.986Z,7.80
2018-06-13T23:27:05.791Z,8.73
2018-06-13T23:29:34.566Z,7.50
2018-06-13T23:32:03.303Z,8.33
2018-06-13T23:34:32.022Z,8.07
2018-06-13T23:37:00.767Z,7.20
2018-06-13T23:39:29.467Z,7.97
2018-06-13T23:41:58.196Z,9.40
2018-06-13T23:44:26.962Z,8.77
2018-06-13T23:46:55.694Z,9.10
2018-06-13T23:49:24.409Z,7.77
2018-06-13T23:51:53.176Z,7.80
2018-06-13T23:54:21.902Z,7.20
2018-06-13T23:56:50.654Z,9.50
2018-06-13T23:59:19.428Z,9.37
